sensor_id;sensor_type;location;lat;lon;timestamp;temperature;humidity
6244;DHT22;3155;49.940;8.450;2023-02-01T00:01:51;4.20;99.90
6244;DHT22;3155;49.940;8.450;2023-02-01T00:04:19;4.20;99.90
6244;DHT22;3155;49.940;8.450;2023-02-01T00:06:46;4.30;99.90
6244;DHT22;3155;49.940;8.450;2023-02-01T00:09:15;4.30;1.00
6244;DHT22;3155;49.940;8.450;2023-02-01T00:11:42;4.40;99.90
6244;DHT22;3155;49.940;8.450;2023-02-01T00:14:08;4.40;99.90
6244;DHT22;3155;49.940;8.450;2023-02-01T00:16:35;4.40;99.90
6244;DHT22;3155;49.940;8.450;2023-02-01T00:19:11;4.40;99.90
6244;DHT22;3155;49.940;8.450;2023-02-01T00:21:38;4.40;99.90
6244;DHT22;3155;49.940;8.450;2023-02-01T00:24:10;4.50;99.90
6244;DHT22;3155;49.940;8.450;2023-02-01T00:26:43;4.50;99.90
6244;DHT22;3155;49.940;8.450;2023-02-01T00:29:13;4.50;1.00
6244;DHT22;3155;49.940;8.450;2023-02-01T00:31:41;4.50;1.00
6244;DHT22;3155;49.940;8.450;2023-02-01T00:34:13;4.40;1.00
6244;DHT22;3155;49.940;8.450;2023-02-01T00:36:41;4.40;1.00
6244;DHT22;3155;49.940;8.450;2023-02-01T00:39:09;4.40;1.00
6244;DHT22;3155;49.940;8.450;2023-02-01T00:41:42;4.30;1.00
6244;DHT22;3155;49.940;8.450;2023-02-01T00:44:09;4.30;99.90
6244;DHT22;3155;49.940;8.450;2023-02-01T00:46:38;4.30;99.90
6244;DHT22;3155;49.940;8.450;2023-02-01T00:49:04;4.30;99.90
6244;DHT22;3155;49.940;8.450;2023-02-01T00:51:36;4.30;99.90
6244;DHT22;3155;49.940;8.450;2023-02-01T00:54:02;4.30;99.90
6244;DHT22;3155;49.940;8.450;2023-02-01T00:56:30;4.30;1.00
6244;DHT22;3155;49.940;8.450;2023-02-01T00:58:58;4.30;1.00
6244;DHT22;3155;49.940;8.450;2023-02-01T01:01:49;4.30;1.00
6244;DHT22;3155;49.940;8.450;2023-02-01T01:04:19;4.30;99.90
6244;DHT22;3155;49.940;8.450;2023-02-01T01:06:49;4.30;99.90
6244;DHT22;3155;49.940;8.450;2023-02-01T01:09:40;4.30;99.90
6244;DHT22;3155;49.940;8.450;2023-02-01T01:12:07;4.30;99.90
6244;DHT22;3155;49.940;8.450;2023-02-01T01:14:36;4.40;99.90
6244;DHT22;3155;49.940;8.450;2023-02-01T01:17:03;4.50;1.00
6244;DHT22;3155;49.940;8.450;2023-02-01T01:19:29;4.50;99.90
6244;DHT22;3155;49.940;8.450;2023-02-01T01:21:56;4.50;99.90
6244;DHT22;3155;49.940;8.450;2023-02-01T01:24:23;4.50;99.90
6244;DHT22;3155;49.940;8.450;2023-02-01T01:26:49;4.60;99.90
6244;DHT22;3155;49.940;8.450;2023-02-01T01:29:16;4.60;99.90
6244;DHT22;3155;49.940;8.450;2023-02-01T01:31:43;4.50;99.90
6244;DHT22;3155;49.940;8.450;2023-02-01T01:34:10;4.50;99.90
6244;DHT22;3155;49.940;8.450;2023-02-01T01:36:37;4.50;99.90
6244;DHT22;3155;49.940;8.450;2023-02-01T01:39:03;4.50;1.00
6244;DHT22;3155;49.940;8.450;2023-02-01T01:41:31;4.50;99.90
6244;DHT22;3155;49.940;8.450;2023-02-01T01:44:04;4.50;99.90
6244;DHT22;3155;49.940;8.450;2023-02-01T01:46:36;4.50;99.90
6244;DHT22;3155;49.940;8.450;2023-02-01T01:49:11;4.50;1.00
6244;DHT22;3155;49.940;8.450;2023-02-01T01:51:52;4.50;99.90
6244;DHT22;3155;49.940;8.450;2023-02-01T01:54:21;4.50;99.90
6244;DHT22;3155;49.940;8.450;2023-02-01T01:56:52;4.50;99.90
6244;DHT22;3155;49.940;8.450;2023-02-01T01:59:21;4.50;99.90
6244;DHT22;3155;49.940;8.450;2023-02-01T02:01:51;4.50;99.90
6244;DHT22;3155;49.940;8.450;2023-02-01T02:04:19;4.50;1.00
6244;DHT22;3155;49.940;8.450;2023-02-01T02:07:07;4.50;1.00
6244;DHT22;3155;49.940;8.450;2023-02-01T02:09:36;4.50;1.00
6244;DHT22;3155;49.940;8.450;2023-02-01T02:12:04;4.50;1.00
6244;DHT22;3155;49.940;8.450;2023-02-01T02:14:31;4.50;1.00
6244;DHT22;3155;49.940;8.450;2023-02-01T02:17:06;4.40;1.00
6244;DHT22;3155;49.940;8.450;2023-02-01T02:22:46;4.50;99.90
6244;DHT22;3155;49.940;8.450;2023-02-01T02:37:18;4.40;99.90
6244;DHT22;3155;49.940;8.450;2023-02-01T02:40:05;4.40;99.90
6244;DHT22;3155;49.940;8.450;2023-02-01T02:46:00;4.50;99.90
6244;DHT22;3155;49.940;8.450;2023-02-01T02:51:46;4.60;99.90
6244;DHT22;3155;49.940;8.450;2023-02-01T02:54:36;4.50;99.90
6244;DHT22;3155;49.940;8.450;2023-02-01T03:00:10;4.50;99.90
6244;DHT22;3155;49.940;8.450;2023-02-01T03:02:57;4.50;99.90
6244;DHT22;3155;49.940;8.450;2023-02-01T03:05:47;4.40;1.00
6244;DHT22;3155;49.940;8.450;2023-02-01T03:08:17;4.40;1.00
6244;DHT22;3155;49.940;8.450;2023-02-01T03:11:05;4.30;1.00
6244;DHT22;3155;49.940;8.450;2023-02-01T03:21:34;4.30;1.00
6244;DHT22;3155;49.940;8.450;2023-02-01T03:24:07;4.30;1.00
6244;DHT22;3155;49.940;8.450;2023-02-01T03:26:41;4.30;1.00
6244;DHT22;3155;49.940;8.450;2023-02-01T03:29:12;4.30;1.00
6244;DHT22;3155;49.940;8.450;2023-02-01T03:31:41;4.30;1.00
6244;DHT22;3155;49.940;8.450;2023-02-01T03:34:08;4.30;1.00
6244;DHT22;3155;49.940;8.450;2023-02-01T03:36:39;4.30;1.00
6244;DHT22;3155;49.940;8.450;2023-02-01T03:41:44;4.30;1.00
6244;DHT22;3155;49.940;8.450;2023-02-01T03:44:16;4.30;1.00
6244;DHT22;3155;49.940;8.450;2023-02-01T03:46:59;4.30;1.00
6244;DHT22;3155;49.940;8.450;2023-02-01T03:49:35;4.30;1.00
6244;DHT22;3155;49.940;8.450;2023-02-01T03:52:05;4.30;1.00
6244;DHT22;3155;49.940;8.450;2023-02-01T03:54:33;4.20;1.00
6244;DHT22;3155;49.940;8.450;2023-02-01T03:57:06;4.20;1.00
6244;DHT22;3155;49.940;8.450;2023-02-01T03:59:40;4.20;1.00
6244;DHT22;3155;49.940;8.450;2023-02-01T04:02:08;4.30;1.00
6244;DHT22;3155;49.940;8.450;2023-02-01T04:04:35;4.30;1.00
6244;DHT22;3155;49.940;8.450;2023-02-01T04:07:04;4.30;1.00
6244;DHT22;3155;49.940;8.450;2023-02-01T04:09:31;4.20;1.00
6244;DHT22;3155;49.940;8.450;2023-02-01T04:11:58;4.20;1.00
6244;DHT22;3155;49.940;8.450;2023-02-01T04:14:27;4.20;1.00
6244;DHT22;3155;49.940;8.450;2023-02-01T04:16:54;4.30;1.00
6244;DHT22;3155;49.940;8.450;2023-02-01T04:19:21;4.30;1.00
6244;DHT22;3155;49.940;8.450;2023-02-01T04:21:50;4.20;1.00
6244;DHT22;3155;49.940;8.450;2023-02-01T04:24:17;4.20;1.00
6244;DHT22;3155;49.940;8.450;2023-02-01T04:26:43;4.20;1.00
6244;DHT22;3155;49.940;8.450;2023-02-01T04:29:10;4.30;1.00
6244;DHT22;3155;49.940;8.450;2023-02-01T04:31:40;4.20;1.00
6244;DHT22;3155;49.940;8.450;2023-02-01T04:34:09;4.20;1.00
6244;DHT22;3155;49.940;8.450;2023-02-01T04:36:36;4.20;1.00
6244;DHT22;3155;49.940;8.450;2023-02-01T04:39:06;4.20;1.00
6244;DHT22;3155;49.940;8.450;2023-02-01T04:41:32;4.20;1.00
6244;DHT22;3155;49.940;8.450;2023-02-01T04:43:59;4.30;1.00
6244;DHT22;3155;49.940;8.450;2023-02-01T04:46:26;4.20;1.00
6244;DHT22;3155;49.940;8.450;2023-02-01T04:48:53;4.20;1.00
6244;DHT22;3155;49.940;8.450;2023-02-01T04:51:20;4.20;1.00
6244;DHT22;3155;49.940;8.450;2023-02-01T04:53:48;4.20;1.00
6244;DHT22;3155;49.940;8.450;2023-02-01T04:56:16;4.20;1.00
6244;DHT22;3155;49.940;8.450;2023-02-01T04:58:42;4.10;1.00
6244;DHT22;3155;49.940;8.450;2023-02-01T05:01:09;4.20;1.00
6244;DHT22;3155;49.940;8.450;2023-02-01T05:03:36;4.20;1.00
6244;DHT22;3155;49.940;8.450;2023-02-01T05:06:03;4.10;1.00
6244;DHT22;3155;49.940;8.450;2023-02-01T05:08:31;4.10;1.00
6244;DHT22;3155;49.940;8.450;2023-02-01T05:10:59;4.20;1.00
6244;DHT22;3155;49.940;8.450;2023-02-01T05:13:29;4.20;1.00
6244;DHT22;3155;49.940;8.450;2023-02-01T05:16:15;4.10;1.00
6244;DHT22;3155;49.940;8.450;2023-02-01T05:18:42;4.10;1.00
6244;DHT22;3155;49.940;8.450;2023-02-01T05:21:10;4.10;1.00
6244;DHT22;3155;49.940;8.450;2023-02-01T05:23:37;4.10;1.00
6244;DHT22;3155;49.940;8.450;2023-02-01T05:26:24;4.20;1.00
6244;DHT22;3155;49.940;8.450;2023-02-01T05:28:51;4.10;1.00
6244;DHT22;3155;49.940;8.450;2023-02-01T05:31:19;4.10;1.00
6244;DHT22;3155;49.940;8.450;2023-02-01T05:33:46;4.10;1.00
6244;DHT22;3155;49.940;8.450;2023-02-01T05:36:13;4.20;1.00
6244;DHT22;3155;49.940;8.450;2023-02-01T05:38:40;4.10;1.00
6244;DHT22;3155;49.940;8.450;2023-02-01T05:41:07;4.10;1.00
6244;DHT22;3155;49.940;8.450;2023-02-01T05:43:34;4.10;1.00
6244;DHT22;3155;49.940;8.450;2023-02-01T05:46:01;4.10;1.00
6244;DHT22;3155;49.940;8.450;2023-02-01T05:48:28;4.10;1.00
6244;DHT22;3155;49.940;8.450;2023-02-01T05:50:54;4.10;1.00
6244;DHT22;3155;49.940;8.450;2023-02-01T05:53:21;4.10;1.00
6244;DHT22;3155;49.940;8.450;2023-02-01T05:55:48;4.20;1.00
6244;DHT22;3155;49.940;8.450;2023-02-01T05:58:15;4.20;99.90
6244;DHT22;3155;49.940;8.450;2023-02-01T06:00:42;4.20;99.90
6244;DHT22;3155;49.940;8.450;2023-02-01T06:03:11;4.20;99.90
6244;DHT22;3155;49.940;8.450;2023-02-01T06:05:38;4.00;99.90
6244;DHT22;3155;49.940;8.450;2023-02-01T06:08:05;3.90;99.90
6244;DHT22;3155;49.940;8.450;2023-02-01T06:10:34;3.80;99.90
6244;DHT22;3155;49.940;8.450;2023-02-01T06:13:03;3.70;99.90
6244;DHT22;3155;49.940;8.450;2023-02-01T06:15:34;3.80;99.90
6244;DHT22;3155;49.940;8.450;2023-02-01T06:18:01;3.70;99.90
6244;DHT22;3155;49.940;8.450;2023-02-01T06:20:28;3.70;99.90
6244;DHT22;3155;49.940;8.450;2023-02-01T06:22:54;3.70;99.90
6244;DHT22;3155;49.940;8.450;2023-02-01T06:25:21;3.70;99.90
6244;DHT22;3155;49.940;8.450;2023-02-01T06:27:49;3.80;99.90
6244;DHT22;3155;49.940;8.450;2023-02-01T06:30:16;3.90;99.90
6244;DHT22;3155;49.940;8.450;2023-02-01T06:32:44;3.80;99.90
6244;DHT22;3155;49.940;8.450;2023-02-01T06:35:10;3.80;99.90
6244;DHT22;3155;49.940;8.450;2023-02-01T06:37:42;3.70;99.90
6244;DHT22;3155;49.940;8.450;2023-02-01T06:40:10;3.60;99.90
6244;DHT22;3155;49.940;8.450;2023-02-01T06:42:37;3.50;99.90
6244;DHT22;3155;49.940;8.450;2023-02-01T06:45:04;3.50;99.90
6244;DHT22;3155;49.940;8.450;2023-02-01T06:47:34;3.40;99.90
6244;DHT22;3155;49.940;8.450;2023-02-01T06:50:01;3.30;99.90
6244;DHT22;3155;49.940;8.450;2023-02-01T06:52:31;3.30;99.90
6244;DHT22;3155;49.940;8.450;2023-02-01T06:54:57;3.20;99.90
6244;DHT22;3155;49.940;8.450;2023-02-01T06:57:24;3.20;99.90
6244;DHT22;3155;49.940;8.450;2023-02-01T06:59:56;3.20;99.90
6244;DHT22;3155;49.940;8.450;2023-02-01T07:02:22;3.10;99.90
6244;DHT22;3155;49.940;8.450;2023-02-01T07:04:49;3.00;99.90
6244;DHT22;3155;49.940;8.450;2023-02-01T07:07:19;2.90;99.90
6244;DHT22;3155;49.940;8.450;2023-02-01T07:09:47;2.90;99.90
6244;DHT22;3155;49.940;8.450;2023-02-01T07:12:13;2.90;99.90
6244;DHT22;3155;49.940;8.450;2023-02-01T07:14:40;2.80;99.90
6244;DHT22;3155;49.940;8.450;2023-02-01T07:17:07;2.70;99.90
6244;DHT22;3155;49.940;8.450;2023-02-01T07:19:34;2.70;99.90
6244;DHT22;3155;49.940;8.450;2023-02-01T07:22:01;2.70;99.90
6244;DHT22;3155;49.940;8.450;2023-02-01T07:24:28;2.70;99.90
6244;DHT22;3155;49.940;8.450;2023-02-01T07:26:57;2.70;99.90
6244;DHT22;3155;49.940;8.450;2023-02-01T07:29:23;2.60;99.90
6244;DHT22;3155;49.940;8.450;2023-02-01T07:31:50;2.70;99.90
6244;DHT22;3155;49.940;8.450;2023-02-01T07:34:17;2.80;99.90
6244;DHT22;3155;49.940;8.450;2023-02-01T07:36:43;2.80;99.90
6244;DHT22;3155;49.940;8.450;2023-02-01T07:39:11;2.80;99.90
6244;DHT22;3155;49.940;8.450;2023-02-01T07:41:38;2.80;99.90
6244;DHT22;3155;49.940;8.450;2023-02-01T07:44:04;2.90;1.00
6244;DHT22;3155;49.940;8.450;2023-02-01T07:46:31;2.90;1.00
6244;DHT22;3155;49.940;8.450;2023-02-01T07:48:58;3.10;1.00
6244;DHT22;3155;49.940;8.450;2023-02-01T07:51:25;3.20;1.00
6244;DHT22;3155;49.940;8.450;2023-02-01T07:53:51;3.50;16.00
6244;DHT22;3155;49.940;8.450;2023-02-01T07:56:22;3.70;1.00
6244;DHT22;3155;49.940;8.450;2023-02-01T07:58:54;3.90;1.00
6244;DHT22;3155;49.940;8.450;2023-02-01T08:01:25;4.10;99.90
6244;DHT22;3155;49.940;8.450;2023-02-01T08:03:55;4.30;99.90
6244;DHT22;3155;49.940;8.450;2023-02-01T08:06:23;4.50;99.90
6244;DHT22;3155;49.940;8.450;2023-02-01T08:08:53;4.70;99.90
6244;DHT22;3155;49.940;8.450;2023-02-01T08:11:21;4.80;99.90
6244;DHT22;3155;49.940;8.450;2023-02-01T08:13:48;5.00;99.90
6244;DHT22;3155;49.940;8.450;2023-02-01T08:16:18;5.20;99.90
6244;DHT22;3155;49.940;8.450;2023-02-01T08:18:45;5.30;99.90
6244;DHT22;3155;49.940;8.450;2023-02-01T08:21:15;5.50;99.90
6244;DHT22;3155;49.940;8.450;2023-02-01T08:23:43;5.70;99.90
6244;DHT22;3155;49.940;8.450;2023-02-01T08:26:21;5.60;99.90
6244;DHT22;3155;49.940;8.450;2023-02-01T08:28:52;5.50;99.90
6244;DHT22;3155;49.940;8.450;2023-02-01T08:31:21;5.50;99.90
6244;DHT22;3155;49.940;8.450;2023-02-01T08:33:51;5.60;99.90
6244;DHT22;3155;49.940;8.450;2023-02-01T08:36:20;5.70;99.90
6244;DHT22;3155;49.940;8.450;2023-02-01T08:38:47;5.90;99.90
6244;DHT22;3155;49.940;8.450;2023-02-01T08:41:19;6.10;99.90
6244;DHT22;3155;49.940;8.450;2023-02-01T08:43:46;6.40;99.90
6244;DHT22;3155;49.940;8.450;2023-02-01T08:46:15;6.60;99.90
6244;DHT22;3155;49.940;8.450;2023-02-01T08:48:45;6.80;99.90
6244;DHT22;3155;49.940;8.450;2023-02-01T08:51:13;6.90;99.90
6244;DHT22;3155;49.940;8.450;2023-02-01T08:53:40;6.90;99.90
6244;DHT22;3155;49.940;8.450;2023-02-01T08:56:14;6.80;99.90
6244;DHT22;3155;49.940;8.450;2023-02-01T08:58:41;6.70;99.90
6244;DHT22;3155;49.940;8.450;2023-02-01T09:01:12;6.70;99.90
6244;DHT22;3155;49.940;8.450;2023-02-01T09:03:39;6.70;99.90
6244;DHT22;3155;49.940;8.450;2023-02-01T09:06:09;6.70;99.90
6244;DHT22;3155;49.940;8.450;2023-02-01T09:08:38;6.90;99.90
6244;DHT22;3155;49.940;8.450;2023-02-01T09:11:12;7.10;99.90
6244;DHT22;3155;49.940;8.450;2023-02-01T09:13:39;7.30;99.90
6244;DHT22;3155;49.940;8.450;2023-02-01T09:16:08;7.40;99.90
6244;DHT22;3155;49.940;8.450;2023-02-01T09:18:35;7.70;99.90
6244;DHT22;3155;49.940;8.450;2023-02-01T09:21:08;8.00;99.90
6244;DHT22;3155;49.940;8.450;2023-02-01T09:23:35;8.30;99.90
6244;DHT22;3155;49.940;8.450;2023-02-01T09:26:04;8.50;99.90
6244;DHT22;3155;49.940;8.450;2023-02-01T09:28:32;8.50;99.90
6244;DHT22;3155;49.940;8.450;2023-02-01T09:31:00;8.50;99.90
6244;DHT22;3155;49.940;8.450;2023-02-01T09:33:28;8.20;99.90
6244;DHT22;3155;49.940;8.450;2023-02-01T09:36:00;7.90;99.90
6244;DHT22;3155;49.940;8.450;2023-02-01T09:38:30;7.50;99.90
6244;DHT22;3155;49.940;8.450;2023-02-01T09:41:26;7.20;99.90
6244;DHT22;3155;49.940;8.450;2023-02-01T09:46:56;6.80;99.90
6244;DHT22;3155;49.940;8.450;2023-02-01T09:49:28;6.80;99.90
6244;DHT22;3155;49.940;8.450;2023-02-01T09:51:59;6.80;99.90
6244;DHT22;3155;49.940;8.450;2023-02-01T09:54:42;6.80;99.90
6244;DHT22;3155;49.940;8.450;2023-02-01T09:57:24;6.70;99.90
6244;DHT22;3155;49.940;8.450;2023-02-01T10:00:18;6.70;99.90
6244;DHT22;3155;49.940;8.450;2023-02-01T10:02:50;6.70;99.90
6244;DHT22;3155;49.940;8.450;2023-02-01T10:08:52;6.70;99.90
6244;DHT22;3155;49.940;8.450;2023-02-01T10:11:42;6.90;99.90
6244;DHT22;3155;49.940;8.450;2023-02-01T10:22:31;8.10;99.90
6244;DHT22;3155;49.940;8.450;2023-02-01T10:28:02;8.20;99.90
6244;DHT22;3155;49.940;8.450;2023-02-01T10:30:37;8.20;99.90
6244;DHT22;3155;49.940;8.450;2023-02-01T10:33:18;8.10;99.90
6244;DHT22;3155;49.940;8.450;2023-02-01T10:36:05;8.00;99.90
6244;DHT22;3155;49.940;8.450;2023-02-01T10:38:37;7.80;99.90
6244;DHT22;3155;49.940;8.450;2023-02-01T10:41:18;7.50;99.90
6244;DHT22;3155;49.940;8.450;2023-02-01T10:43:54;7.30;99.90
6244;DHT22;3155;49.940;8.450;2023-02-01T10:46:24;7.10;99.90
6244;DHT22;3155;49.940;8.450;2023-02-01T10:48:54;7.10;99.90
6244;DHT22;3155;49.940;8.450;2023-02-01T10:51:39;7.10;99.90
6244;DHT22;3155;49.940;8.450;2023-02-01T10:54:20;7.20;99.90
6244;DHT22;3155;49.940;8.450;2023-02-01T10:56:49;7.40;99.90
6244;DHT22;3155;49.940;8.450;2023-02-01T10:59:23;7.60;99.90
6244;DHT22;3155;49.940;8.450;2023-02-01T11:02:01;7.70;99.90
6244;DHT22;3155;49.940;8.450;2023-02-01T11:04:33;7.80;99.90
6244;DHT22;3155;49.940;8.450;2023-02-01T11:07:05;7.70;99.90
6244;DHT22;3155;49.940;8.450;2023-02-01T11:09:41;7.60;99.90
6244;DHT22;3155;49.940;8.450;2023-02-01T11:12:33;7.50;99.90
6244;DHT22;3155;49.940;8.450;2023-02-01T11:15:18;7.40;99.90
6244;DHT22;3155;49.940;8.450;2023-02-01T11:17:47;7.20;99.90
6244;DHT22;3155;49.940;8.450;2023-02-01T11:20:18;7.00;99.90
6244;DHT22;3155;49.940;8.450;2023-02-01T11:22:53;6.90;99.90
6244;DHT22;3155;49.940;8.450;2023-02-01T11:25:21;6.80;99.90
6244;DHT22;3155;49.940;8.450;2023-02-01T11:27:53;6.80;99.90
6244;DHT22;3155;49.940;8.450;2023-02-01T11:30:38;6.80;99.90
6244;DHT22;3155;49.940;8.450;2023-02-01T11:33:20;6.70;99.90
6244;DHT22;3155;49.940;8.450;2023-02-01T11:35:51;6.70;99.90
6244;DHT22;3155;49.940;8.450;2023-02-01T11:40:49;6.70;99.90
6244;DHT22;3155;49.940;8.450;2023-02-01T11:43:26;6.80;99.90
6244;DHT22;3155;49.940;8.450;2023-02-01T11:46:01;6.90;99.90
6244;DHT22;3155;49.940;8.450;2023-02-01T11:48:34;7.00;99.90
6244;DHT22;3155;49.940;8.450;2023-02-01T11:54:28;6.90;99.90
6244;DHT22;3155;49.940;8.450;2023-02-01T11:59:28;6.90;99.90
6244;DHT22;3155;49.940;8.450;2023-02-01T12:08:06;6.90;99.90
6244;DHT22;3155;49.940;8.450;2023-02-01T12:32:41;7.00;99.90
6244;DHT22;3155;49.940;8.450;2023-02-01T12:43:43;6.90;99.90
6244;DHT22;3155;49.940;8.450;2023-02-01T12:46:30;7.00;99.90
6244;DHT22;3155;49.940;8.450;2023-02-01T12:49:18;7.10;99.90
6244;DHT22;3155;49.940;8.450;2023-02-01T12:51:49;7.20;99.90
6244;DHT22;3155;49.940;8.450;2023-02-01T12:54:31;7.20;99.90
6244;DHT22;3155;49.940;8.450;2023-02-01T12:57:11;7.20;99.90
6244;DHT22;3155;49.940;8.450;2023-02-01T12:59:44;7.30;99.90
6244;DHT22;3155;49.940;8.450;2023-02-01T13:02:27;7.30;99.90
6244;DHT22;3155;49.940;8.450;2023-02-01T13:07:50;7.30;99.90
6244;DHT22;3155;49.940;8.450;2023-02-01T13:10:24;7.20;99.90
6244;DHT22;3155;49.940;8.450;2023-02-01T13:13:16;7.20;99.90
6244;DHT22;3155;49.940;8.450;2023-02-01T13:18:20;7.20;99.90
6244;DHT22;3155;49.940;8.450;2023-02-01T13:20:58;7.20;99.90
6244;DHT22;3155;49.940;8.450;2023-02-01T13:23:31;7.30;99.90
6244;DHT22;3155;49.940;8.450;2023-02-01T13:26:00;7.30;99.90
6244;DHT22;3155;49.940;8.450;2023-02-01T13:43:00;7.40;99.90
6244;DHT22;3155;49.940;8.450;2023-02-01T13:45:31;7.40;99.90
6244;DHT22;3155;49.940;8.450;2023-02-01T13:48:03;7.60;99.90
6244;DHT22;3155;49.940;8.450;2023-02-01T13:50:40;7.60;99.90
6244;DHT22;3155;49.940;8.450;2023-02-01T13:55:55;7.90;99.90
6244;DHT22;3155;49.940;8.450;2023-02-01T13:58:35;7.90;99.90
6244;DHT22;3155;49.940;8.450;2023-02-01T14:03:57;7.80;99.90
6244;DHT22;3155;49.940;8.450;2023-02-01T14:11:46;7.70;99.90
6244;DHT22;3155;49.940;8.450;2023-02-01T14:19:23;7.40;99.90
6244;DHT22;3155;49.940;8.450;2023-02-01T14:21:56;7.40;99.90
6244;DHT22;3155;49.940;8.450;2023-02-01T14:24:32;7.40;99.90
6244;DHT22;3155;49.940;8.450;2023-02-01T14:29:43;7.60;99.90
6244;DHT22;3155;49.940;8.450;2023-02-01T14:32:18;8.00;99.90
6244;DHT22;3155;49.940;8.450;2023-02-01T14:37:30;8.30;99.90
6244;DHT22;3155;49.940;8.450;2023-02-01T14:40:20;8.40;99.90
6244;DHT22;3155;49.940;8.450;2023-02-01T14:42:51;8.40;99.90
6244;DHT22;3155;49.940;8.450;2023-02-01T14:50:38;8.10;99.90
6244;DHT22;3155;49.940;8.450;2023-02-01T15:01:22;7.60;99.90
6244;DHT22;3155;49.940;8.450;2023-02-01T15:04:13;7.40;99.90
6244;DHT22;3155;49.940;8.450;2023-02-01T15:06:51;7.30;99.90
6244;DHT22;3155;49.940;8.450;2023-02-01T15:09:25;7.20;99.90
6244;DHT22;3155;49.940;8.450;2023-02-01T15:11:55;7.10;99.90
6244;DHT22;3155;49.940;8.450;2023-02-01T15:14:24;7.00;99.90
6244;DHT22;3155;49.940;8.450;2023-02-01T15:16:51;6.90;99.90
6244;DHT22;3155;49.940;8.450;2023-02-01T15:19:29;6.90;99.90
6244;DHT22;3155;49.940;8.450;2023-02-01T15:21:58;6.90;99.90
6244;DHT22;3155;49.940;8.450;2023-02-01T15:24:29;7.00;99.90
6244;DHT22;3155;49.940;8.450;2023-02-01T15:27:03;7.10;99.90
6244;DHT22;3155;49.940;8.450;2023-02-01T15:29:31;7.10;99.90
6244;DHT22;3155;49.940;8.450;2023-02-01T15:32:05;7.20;99.90
6244;DHT22;3155;49.940;8.450;2023-02-01T15:34:47;7.20;99.90
6244;DHT22;3155;49.940;8.450;2023-02-01T15:37:15;7.20;99.90
6244;DHT22;3155;49.940;8.450;2023-02-01T15:45:31;7.10;99.90
6244;DHT22;3155;49.940;8.450;2023-02-01T15:48:00;7.10;99.90
6244;DHT22;3155;49.940;8.450;2023-02-01T15:50:30;7.10;99.90
6244;DHT22;3155;49.940;8.450;2023-02-01T15:53:03;7.00;99.90
6244;DHT22;3155;49.940;8.450;2023-02-01T15:55:39;7.00;99.90
6244;DHT22;3155;49.940;8.450;2023-02-01T15:58:18;7.00;99.90
6244;DHT22;3155;49.940;8.450;2023-02-01T16:00:51;7.00;99.90
6244;DHT22;3155;49.940;8.450;2023-02-01T16:03:42;7.00;99.90
6244;DHT22;3155;49.940;8.450;2023-02-01T16:06:12;6.90;99.90
6244;DHT22;3155;49.940;8.450;2023-02-01T16:08:50;6.90;99.90
6244;DHT22;3155;49.940;8.450;2023-02-01T16:11:30;6.90;99.90
6244;DHT22;3155;49.940;8.450;2023-02-01T16:14:06;6.90;99.90
6244;DHT22;3155;49.940;8.450;2023-02-01T16:16:32;6.90;99.90
6244;DHT22;3155;49.940;8.450;2023-02-01T16:18:59;6.90;99.90
6244;DHT22;3155;49.940;8.450;2023-02-01T16:21:26;6.90;99.90
6244;DHT22;3155;49.940;8.450;2023-02-01T16:23:56;6.80;99.90
6244;DHT22;3155;49.940;8.450;2023-02-01T16:26:28;6.80;99.90
6244;DHT22;3155;49.940;8.450;2023-02-01T16:28:55;6.80;99.90
6244;DHT22;3155;49.940;8.450;2023-02-01T16:31:27;6.80;99.90
6244;DHT22;3155;49.940;8.450;2023-02-01T16:34:05;6.80;99.90
6244;DHT22;3155;49.940;8.450;2023-02-01T16:36:38;6.80;99.90
6244;DHT22;3155;49.940;8.450;2023-02-01T16:39:14;6.80;99.90
6244;DHT22;3155;49.940;8.450;2023-02-01T16:41:41;6.80;99.90
6244;DHT22;3155;49.940;8.450;2023-02-01T16:44:08;6.80;99.90
6244;DHT22;3155;49.940;8.450;2023-02-01T16:46:44;6.80;99.90
6244;DHT22;3155;49.940;8.450;2023-02-01T16:49:23;6.70;99.90
6244;DHT22;3155;49.940;8.450;2023-02-01T16:51:52;6.60;99.90
6244;DHT22;3155;49.940;8.450;2023-02-01T16:54:22;6.50;99.90
6244;DHT22;3155;49.940;8.450;2023-02-01T16:56:49;6.30;99.90
6244;DHT22;3155;49.940;8.450;2023-02-01T16:59:18;6.20;99.90
6244;DHT22;3155;49.940;8.450;2023-02-01T17:01:47;6.20;99.90
6244;DHT22;3155;49.940;8.450;2023-02-01T17:04:15;6.10;99.90
6244;DHT22;3155;49.940;8.450;2023-02-01T17:06:49;6.10;99.90
6244;DHT22;3155;49.940;8.450;2023-02-01T17:09:15;6.00;99.90
6244;DHT22;3155;49.940;8.450;2023-02-01T17:11:42;6.00;99.90
6244;DHT22;3155;49.940;8.450;2023-02-01T17:14:16;6.00;99.90
6244;DHT22;3155;49.940;8.450;2023-02-01T17:16:45;5.90;99.90
6244;DHT22;3155;49.940;8.450;2023-02-01T17:19:16;5.90;99.90
6244;DHT22;3155;49.940;8.450;2023-02-01T17:21:50;5.90;99.90
6244;DHT22;3155;49.940;8.450;2023-02-01T17:24:29;5.90;99.90
6244;DHT22;3155;49.940;8.450;2023-02-01T17:27:12;5.90;99.90
6244;DHT22;3155;49.940;8.450;2023-02-01T17:29:39;5.80;99.90
6244;DHT22;3155;49.940;8.450;2023-02-01T17:32:13;5.80;99.90
6244;DHT22;3155;49.940;8.450;2023-02-01T17:34:45;5.80;99.90
6244;DHT22;3155;49.940;8.450;2023-02-01T17:39:53;5.80;99.90
6244;DHT22;3155;49.940;8.450;2023-02-01T17:42:20;5.80;99.90
6244;DHT22;3155;49.940;8.450;2023-02-01T17:44:49;5.80;99.90
6244;DHT22;3155;49.940;8.450;2023-02-01T17:47:16;5.80;99.90
6244;DHT22;3155;49.940;8.450;2023-02-01T17:49:48;5.80;99.90
6244;DHT22;3155;49.940;8.450;2023-02-01T17:52:23;5.80;99.90
6244;DHT22;3155;49.940;8.450;2023-02-01T17:54:52;5.80;99.90
6244;DHT22;3155;49.940;8.450;2023-02-01T17:57:22;5.70;99.90
6244;DHT22;3155;49.940;8.450;2023-02-01T17:59:49;5.70;99.90
6244;DHT22;3155;49.940;8.450;2023-02-01T18:02:24;5.60;99.90
6244;DHT22;3155;49.940;8.450;2023-02-01T18:04:51;5.50;99.90
6244;DHT22;3155;49.940;8.450;2023-02-01T18:07:20;5.30;99.90
6244;DHT22;3155;49.940;8.450;2023-02-01T18:09:50;5.20;99.90
6244;DHT22;3155;49.940;8.450;2023-02-01T18:12:21;5.00;99.90
6244;DHT22;3155;49.940;8.450;2023-02-01T18:14:48;5.00;99.90
6244;DHT22;3155;49.940;8.450;2023-02-01T18:17:20;5.10;99.90
6244;DHT22;3155;49.940;8.450;2023-02-01T18:19:47;5.20;99.90
6244;DHT22;3155;49.940;8.450;2023-02-01T18:22:19;5.40;99.90
6244;DHT22;3155;49.940;8.450;2023-02-01T18:24:47;5.50;99.90
6244;DHT22;3155;49.940;8.450;2023-02-01T18:27:14;5.60;99.90
6244;DHT22;3155;49.940;8.450;2023-02-01T18:29:41;5.60;99.90
6244;DHT22;3155;49.940;8.450;2023-02-01T18:32:32;5.50;99.90
6244;DHT22;3155;49.940;8.450;2023-02-01T18:35:22;5.30;99.90
6244;DHT22;3155;49.940;8.450;2023-02-01T18:37:52;5.30;99.90
6244;DHT22;3155;49.940;8.450;2023-02-01T18:40:29;5.30;99.90
6244;DHT22;3155;49.940;8.450;2023-02-01T18:42:59;5.40;99.90
6244;DHT22;3155;49.940;8.450;2023-02-01T18:45:40;5.40;99.90
6244;DHT22;3155;49.940;8.450;2023-02-01T18:48:09;5.40;99.90
6244;DHT22;3155;49.940;8.450;2023-02-01T18:50:41;5.50;99.90
6244;DHT22;3155;49.940;8.450;2023-02-01T18:53:19;5.50;99.90
6244;DHT22;3155;49.940;8.450;2023-02-01T18:55:47;5.60;99.90
6244;DHT22;3155;49.940;8.450;2023-02-01T18:58:20;5.60;99.90
6244;DHT22;3155;49.940;8.450;2023-02-01T19:00:47;5.70;99.90
6244;DHT22;3155;49.940;8.450;2023-02-01T19:03:15;5.70;99.90
6244;DHT22;3155;49.940;8.450;2023-02-01T19:06:08;5.80;99.90
6244;DHT22;3155;49.940;8.450;2023-02-01T19:08:40;5.80;99.90
6244;DHT22;3155;49.940;8.450;2023-02-01T19:11:08;5.90;99.90
6244;DHT22;3155;49.940;8.450;2023-02-01T19:13:48;5.90;99.90
6244;DHT22;3155;49.940;8.450;2023-02-01T19:16:15;5.80;99.90
6244;DHT22;3155;49.940;8.450;2023-02-01T19:18:51;5.80;99.90
6244;DHT22;3155;49.940;8.450;2023-02-01T19:21:22;5.80;99.90
6244;DHT22;3155;49.940;8.450;2023-02-01T19:23:50;5.80;99.90
6244;DHT22;3155;49.940;8.450;2023-02-01T19:26:21;5.80;99.90
6244;DHT22;3155;49.940;8.450;2023-02-01T19:28:59;5.80;99.90
6244;DHT22;3155;49.940;8.450;2023-02-01T19:31:26;5.80;99.90